ADDS METAR Data INFO
IDs: Format: Raw Decoded Include TAF

Data at: 0837 UTC 21 Oct 2017

K4O4 210815Z AUTO 10003KT 10SM BKN050 17/15 A2998 RMK AO2
K4O4 210755Z AUTO 11005KT 10SM SCT032 BKN060 17/15 A2999 RMK AO2
K4O4 210735Z AUTO 11006KT 10SM SCT034 BKN060 17/15 A2999 RMK AO2
K4O4 210715Z AUTO 11007KT 10SM SCT034 SCT050 BKN065 17/14 A2999 RMK AO2
K4O4 210655Z AUTO 10006KT 10SM BKN065 17/14 A2999 RMK AO2
K4O4 210635Z AUTO 10006KT 10SM SCT065 17/14 A2999 RMK AO2
K4O4 210615Z AUTO 11006KT 10SM SCT075 17/14 A3000 RMK AO2
K4O4 210555Z AUTO 10005KT 10SM SCT075 16/14 A3000 RMK AO2
K4O4 210535Z AUTO 10006KT 10SM CLR 16/13 A2999 RMK AO2
K4O4 210515Z AUTO 09006KT 10SM CLR 16/13 A2999 RMK AO2
K4O4 210455Z AUTO 11005KT 10SM CLR 16/13 A3000 RMK AO2
K4O4 210435Z AUTO 10005KT 10SM CLR 17/13 A3001 RMK AO2
K4O4 210415Z AUTO 11007KT 10SM CLR 17/13 A3001 RMK AO2
K4O4 210355Z AUTO 11005KT 10SM CLR 17/13 A3002 RMK AO2
K4O4 210335Z AUTO 11006KT 10SM CLR 17/13 A3001 RMK AO2
K4O4 210315Z AUTO 10005KT 10SM CLR 17/13 A3001 RMK AO2
K4O4 210255Z AUTO 11006KT 10SM CLR 17/13 A3001 RMK AO2
K4O4 210235Z AUTO 11007KT 10SM CLR 18/13 A3001 RMK AO2
K4O4 210215Z AUTO 11007KT 10SM CLR 18/13 A3000 RMK AO2
K4O4 210155Z AUTO 11009KT 10SM CLR 18/14 A2999 RMK AO2
K4O4 210135Z AUTO 10007KT 10SM CLR 19/13 A3000 RMK AO2
K4O4 210115Z AUTO 11007KT 10SM CLR 20/13 A2999 RMK AO2
K4O4 210055Z AUTO 12006KT 10SM CLR 20/13 A2998 RMK AO2
K4O4 210035Z AUTO 12009KT 10SM CLR 21/13 A2997 RMK AO2
K4O4 210015Z AUTO 12009KT 10SM CLR 21/13 A2998 RMK AO2
K4O4 202355Z AUTO 12009KT 10SM CLR 22/14 A2998 RMK AO2
K4O4 202335Z AUTO 12006KT 10SM CLR 22/13 A2999 RMK AO2
K4O4 202315Z AUTO 14012G19KT 10SM CLR 23/13 A2999 RMK AO2
K4O4 202255Z AUTO 13011G19KT 10SM CLR 24/14 A2999 RMK AO2
K4O4 202235Z AUTO 13012G18KT 10SM SCT043 SCT048 25/14 A3000 RMK AO2
K4O4 202215Z AUTO 14012G19KT 10SM SCT045 25/14 A3000 RMK AO2
K4O4 202155Z AUTO 14011KT 10SM CLR 25/14 A3000 RMK AO2
K4O4 202135Z AUTO 12011G16KT 10SM CLR 26/14 A2999 RMK AO2
K4O4 202115Z AUTO 13010KT 10SM CLR 26/14 A2999 RMK AO2
K4O4 202055Z AUTO 12008G14KT 10SM CLR 26/15 A3000 RMK AO2
K4O4 202035Z AUTO 12010KT 10SM CLR 26/15 A3001 RMK AO2
K4O4 202015Z AUTO 12009KT 10SM CLR 25/15 A3002 RMK AO2
K4O4 201955Z AUTO 12007KT 10SM CLR 25/15 A3003 RMK AO2
K4O4 201935Z AUTO 13007KT 10SM CLR 23/15 A3005 RMK AO2
K4O4 201915Z AUTO 14008KT 10SM CLR 23/15 A3006 RMK AO2
K4O4 201855Z AUTO 16007KT 10SM CLR 22/15 A3008 RMK AO2
K4O4 201835Z AUTO 14007KT 10SM CLR 22/15 A3009 RMK AO2
K4O4 201815Z AUTO 15008KT 10SM CLR 21/15 A3011 RMK AO2
K4O4 201755Z AUTO 13007KT 10SM CLR 21/15 A3011 RMK AO2
K4O4 201735Z AUTO 13006KT 10SM CLR 20/15 A3013 RMK AO2
K4O4 201715Z AUTO 13005KT 10SM CLR 19/15 A3015 RMK AO2
K4O4 201655Z AUTO 12008KT 10SM CLR 20/14 A3014 RMK AO2
K4O4 201635Z AUTO 14008KT 10SM CLR 20/14 A3015 RMK AO2
K4O4 201615Z AUTO 14005KT 10SM CLR 18/14 A3016 RMK AO2
K4O4 201555Z AUTO 00000KT 10SM CLR 17/14 A3015 RMK AO2
K4O4 201535Z AUTO 06004KT 10SM CLR 16/13 A3015 RMK AO2
K4O4 201515Z AUTO 10006KT 10SM SCT018 SCT033 SCT040 16/13 A3015 RMK AO2
K4O4 201455Z AUTO 12006KT 10SM SCT034 BKN040 16/12 A3016 RMK AO2
K4O4 201435Z AUTO 09005KT 10SM 16/12 A3015 RMK AO2
K4O4 201415Z AUTO 08006KT 15/12 A3015 RMK AO2
K4O4 201355Z AUTO 08005KT RMK AO2
K4O4 201335Z AUTO 09005KT A3015 RMK AO2
K4O4 201315Z AUTO 08006KT RMK AO2
K4O4 201255Z AUTO 08005KT RMK AO2
K4O4 201235Z AUTO 09004KT 13/11 RMK AO2
K4O4 201215Z AUTO 07006KT RMK AO2
K4O4 201155Z AUTO 06004KT 13/11 RMK AO2
K4O4 201135Z AUTO 07005KT 10SM CLR 13/11 A3013 RMK AO2
K4O4 201115Z AUTO 07005KT 10SM CLR 13/11 A3013 RMK AO2
K4O4 201055Z AUTO 08005KT 10SM CLR 14/12 A3013 RMK AO2
K4O4 201035Z AUTO 11005KT 10SM CLR 14/12 A3014 RMK AO2
K4O4 201015Z AUTO 10004KT 10SM CLR 14/11 A3014 RMK AO2
K4O4 200955Z AUTO 10004KT 10SM CLR 14/12 A3013 RMK AO2
K4O4 200935Z AUTO 08005KT 10SM CLR 14/11 A3012 RMK AO2
K4O4 200915Z AUTO 09006KT 10SM CLR 14/11 A3013 RMK AO2
K4O4 200855Z AUTO 09006KT 10SM CLR 15/12 A3014 RMK AO2
K4O4 200835Z AUTO 10006KT 10SM CLR 15/12 A3015 RMK AO2
K4O4 200815Z AUTO 10006KT 10SM CLR 15/12 A3015 RMK AO2
K4O4 200755Z AUTO 11007KT 10SM CLR 15/12 A3015 RMK AO2
K4O4 200735Z AUTO 10006KT 10SM CLR 15/12 A3015 RMK AO2
K4O4 200715Z AUTO 10006KT 10SM CLR 15/11 A3015 RMK AO2
K4O4 200655Z AUTO 10006KT 10SM CLR 15/11 A3015 RMK AO2
K4O4 200635Z AUTO 10005KT 10SM CLR 15/11 A3014 RMK AO2
K4O4 200615Z AUTO 11006KT 10SM CLR 15/11 A3015 RMK AO2
K4O4 200555Z AUTO 12006KT 10SM CLR 15/11 A3015 RMK AO2
K4O4 200535Z AUTO 11006KT 10SM CLR 16/11 A3015 RMK AO2
K4O4 200515Z AUTO 11007KT 10SM CLR 16/11 A3015 RMK AO2
K4O4 200455Z AUTO 11006KT 10SM CLR 16/11 A3015 RMK AO2
K4O4 200435Z AUTO 11006KT 10SM CLR 16/11 A3015 RMK AO2
K4O4 200415Z AUTO 12005KT 10SM CLR 17/11 A3016 RMK AO2
K4O4 200355Z AUTO 12007KT 10SM CLR 17/11 A3015 RMK AO2
K4O4 200335Z AUTO 12006KT 10SM CLR 17/11 A3015 RMK AO2
K4O4 200315Z AUTO 13008KT 10SM CLR 17/11 A3015 RMK AO2
K4O4 200255Z AUTO 13006KT 10SM CLR 18/11 A3014 RMK AO2
K4O4 200235Z AUTO 13008KT 10SM CLR 18/11 A3014 RMK AO2
K4O4 200215Z AUTO 12007KT 10SM CLR 18/10 A3013 RMK AO2
K4O4 200155Z AUTO 12008KT 10SM CLR 18/11 A3013 RMK AO2
K4O4 200135Z AUTO 11007KT 10SM CLR 18/11 A3013 RMK AO2
K4O4 200115Z AUTO 10006KT 10SM CLR 18/11 A3012 RMK AO2
K4O4 200055Z AUTO 10005KT 10SM CLR 18/11 A3012 RMK AO2
K4O4 200035Z AUTO 09006KT 10SM CLR 19/11 A3012 RMK AO2
K4O4 200015Z AUTO 10004KT 10SM CLR 20/11 A3012 RMK AO2
K4O4 192355Z AUTO 10005KT 10SM CLR 21/11 A3012 RMK AO2
K4O4 192335Z AUTO 10006KT 10SM CLR 22/10 A3011 RMK AO2
K4O4 192315Z AUTO 10006KT 10SM CLR 23/10 A3011 RMK AO2
K4O4 192255Z AUTO 10007KT 10SM CLR 25/10 A3011 RMK AO2
K4O4 192235Z AUTO 11007KT 10SM CLR 25/09 A3012 RMK AO2
K4O4 192215Z AUTO 11007KT 10SM CLR 25/09 A3012 RMK AO2
K4O4 192155Z AUTO 12006KT 10SM CLR 25/09 A3012 RMK AO2
K4O4 192135Z AUTO 11008KT 10SM CLR 25/09 A3012 RMK AO2
K4O4 192115Z AUTO 13007KT 10SM CLR 26/10 A3012 RMK AO2
K4O4 192055Z AUTO 13006KT 10SM CLR 27/07 A3012 RMK AO2